sensor_id;sensor_type;location;lat;lon;timestamp;P1;durP1;ratioP1;P2;durP2;ratioP2
10467;SDS011;5281;48.878;9.394;2023-04-25T00:01:56;3.13;;;1.70;;
10467;SDS011;5281;48.878;9.394;2023-04-25T00:04:22;2.07;;;1.50;;
10467;SDS011;5281;48.878;9.394;2023-04-25T00:06:50;1.87;;;1.63;;
10467;SDS011;5281;48.878;9.394;2023-04-25T00:09:19;2.47;;;1.67;;
10467;SDS011;5281;48.878;9.394;2023-04-25T00:11:46;3.03;;;1.83;;
10467;SDS011;5281;48.878;9.394;2023-04-25T00:14:13;1.77;;;1.50;;
10467;SDS011;5281;48.878;9.394;2023-04-25T00:16:41;3.40;;;1.90;;
10467;SDS011;5281;48.878;9.394;2023-04-25T00:19:09;2.20;;;1.63;;
10467;SDS011;5281;48.878;9.394;2023-04-25T00:21:36;3.17;;;1.90;;
10467;SDS011;5281;48.878;9.394;2023-04-25T00:24:05;2.30;;;1.90;;
10467;SDS011;5281;48.878;9.394;2023-04-25T00:26:34;2.93;;;2.10;;
10467;SDS011;5281;48.878;9.394;2023-04-25T00:29:02;2.93;;;2.00;;
10467;SDS011;5281;48.878;9.394;2023-04-25T00:31:29;2.40;;;1.90;;
10467;SDS011;5281;48.878;9.394;2023-04-25T00:33:55;2.83;;;1.87;;
10467;SDS011;5281;48.878;9.394;2023-04-25T00:36:22;4.10;;;2.30;;
10467;SDS011;5281;48.878;9.394;2023-04-25T00:38:49;2.10;;;1.90;;
10467;SDS011;5281;48.878;9.394;2023-04-25T00:41:16;2.53;;;2.00;;
10467;SDS011;5281;48.878;9.394;2023-04-25T00:43:46;2.30;;;1.53;;
10467;SDS011;5281;48.878;9.394;2023-04-25T00:46:14;2.20;;;1.97;;
10467;SDS011;5281;48.878;9.394;2023-04-25T00:48:40;2.20;;;1.67;;
10467;SDS011;5281;48.878;9.394;2023-04-25T00:51:07;2.03;;;1.30;;
10467;SDS011;5281;48.878;9.394;2023-04-25T00:53:37;4.23;;;1.70;;
10467;SDS011;5281;48.878;9.394;2023-04-25T00:56:04;3.07;;;1.40;;
10467;SDS011;5281;48.878;9.394;2023-04-25T00:58:32;3.13;;;1.53;;
10467;SDS011;5281;48.878;9.394;2023-04-25T01:01:00;1.90;;;1.53;;
10467;SDS011;5281;48.878;9.394;2023-04-25T01:03:27;1.50;;;1.30;;
10467;SDS011;5281;48.878;9.394;2023-04-25T01:05:54;1.97;;;1.50;;
10467;SDS011;5281;48.878;9.394;2023-04-25T01:08:21;2.33;;;1.60;;
10467;SDS011;5281;48.878;9.394;2023-04-25T01:10:50;2.23;;;1.60;;
10467;SDS011;5281;48.878;9.394;2023-04-25T01:13:17;2.00;;;1.40;;
10467;SDS011;5281;48.878;9.394;2023-04-25T01:15:45;3.27;;;1.60;;
10467;SDS011;5281;48.878;9.394;2023-04-25T01:18:13;2.30;;;1.43;;
10467;SDS011;5281;48.878;9.394;2023-04-25T01:20:40;2.50;;;1.70;;
10467;SDS011;5281;48.878;9.394;2023-04-25T01:23:09;1.80;;;1.53;;
10467;SDS011;5281;48.878;9.394;2023-04-25T01:25:36;2.60;;;1.27;;
10467;SDS011;5281;48.878;9.394;2023-04-25T01:28:04;1.50;;;1.27;;
10467;SDS011;5281;48.878;9.394;2023-04-25T01:30:32;1.73;;;1.50;;
10467;SDS011;5281;48.878;9.394;2023-04-25T01:33:00;1.53;;;1.20;;
10467;SDS011;5281;48.878;9.394;2023-04-25T01:35:29;1.67;;;1.40;;
10467;SDS011;5281;48.878;9.394;2023-04-25T01:37:56;1.67;;;1.40;;
10467;SDS011;5281;48.878;9.394;2023-04-25T01:40:25;5.07;;;1.50;;
10467;SDS011;5281;48.878;9.394;2023-04-25T01:42:53;1.37;;;1.17;;
10467;SDS011;5281;48.878;9.394;2023-04-25T01:45:21;2.67;;;1.40;;
10467;SDS011;5281;48.878;9.394;2023-04-25T01:47:48;2.33;;;1.43;;
10467;SDS011;5281;48.878;9.394;2023-04-25T01:50:15;2.53;;;1.43;;
10467;SDS011;5281;48.878;9.394;2023-04-25T01:52:43;2.63;;;1.50;;
10467;SDS011;5281;48.878;9.394;2023-04-25T01:55:10;1.17;;;1.10;;
10467;SDS011;5281;48.878;9.394;2023-04-25T01:57:38;1.43;;;1.33;;
10467;SDS011;5281;48.878;9.394;2023-04-25T02:00:06;2.07;;;1.47;;
10467;SDS011;5281;48.878;9.394;2023-04-25T02:02:34;2.57;;;1.57;;
10467;SDS011;5281;48.878;9.394;2023-04-25T02:05:01;1.60;;;1.50;;
10467;SDS011;5281;48.878;9.394;2023-04-25T02:07:28;4.93;;;1.57;;
10467;SDS011;5281;48.878;9.394;2023-04-25T02:09:54;2.23;;;1.50;;
10467;SDS011;5281;48.878;9.394;2023-04-25T02:12:21;2.87;;;1.50;;
10467;SDS011;5281;48.878;9.394;2023-04-25T02:14:50;1.93;;;1.60;;
10467;SDS011;5281;48.878;9.394;2023-04-25T02:17:16;2.00;;;1.53;;
10467;SDS011;5281;48.878;9.394;2023-04-25T02:19:44;1.80;;;1.40;;
10467;SDS011;5281;48.878;9.394;2023-04-25T02:22:11;3.00;;;1.80;;
10467;SDS011;5281;48.878;9.394;2023-04-25T02:24:37;2.37;;;1.80;;
10467;SDS011;5281;48.878;9.394;2023-04-25T02:27:05;3.47;;;1.60;;
10467;SDS011;5281;48.878;9.394;2023-04-25T02:29:32;2.10;;;1.60;;
10467;SDS011;5281;48.878;9.394;2023-04-25T02:32:01;2.20;;;1.80;;
10467;SDS011;5281;48.878;9.394;2023-04-25T02:34:28;3.13;;;1.80;;
10467;SDS011;5281;48.878;9.394;2023-04-25T02:36:55;2.20;;;1.60;;
10467;SDS011;5281;48.878;9.394;2023-04-25T02:39:21;2.50;;;1.50;;
10467;SDS011;5281;48.878;9.394;2023-04-25T02:41:50;2.17;;;1.57;;
10467;SDS011;5281;48.878;9.394;2023-04-25T02:44:17;2.33;;;1.83;;
10467;SDS011;5281;48.878;9.394;2023-04-25T02:46:44;1.90;;;1.57;;
10467;SDS011;5281;48.878;9.394;2023-04-25T02:49:12;1.83;;;1.73;;
10467;SDS011;5281;48.878;9.394;2023-04-25T02:51:39;1.60;;;1.50;;
10467;SDS011;5281;48.878;9.394;2023-04-25T02:54:05;2.07;;;1.60;;
10467;SDS011;5281;48.878;9.394;2023-04-25T02:56:32;1.97;;;1.67;;
10467;SDS011;5281;48.878;9.394;2023-04-25T02:58:59;2.60;;;1.77;;
10467;SDS011;5281;48.878;9.394;2023-04-25T03:01:26;1.93;;;1.73;;
10467;SDS011;5281;48.878;9.394;2023-04-25T03:03:52;2.67;;;1.77;;
10467;SDS011;5281;48.878;9.394;2023-04-25T03:06:21;2.80;;;2.00;;
10467;SDS011;5281;48.878;9.394;2023-04-25T03:08:48;3.57;;;1.60;;
10467;SDS011;5281;48.878;9.394;2023-04-25T03:11:14;3.93;;;2.07;;
10467;SDS011;5281;48.878;9.394;2023-04-25T03:13:41;4.43;;;1.80;;
10467;SDS011;5281;48.878;9.394;2023-04-25T03:16:08;2.90;;;1.90;;
10467;SDS011;5281;48.878;9.394;2023-04-25T03:18:35;2.93;;;1.80;;
10467;SDS011;5281;48.878;9.394;2023-04-25T03:21:02;2.23;;;1.80;;
10467;SDS011;5281;48.878;9.394;2023-04-25T03:23:30;2.20;;;1.90;;
10467;SDS011;5281;48.878;9.394;2023-04-25T03:25:57;5.10;;;1.87;;
10467;SDS011;5281;48.878;9.394;2023-04-25T03:28:24;2.10;;;1.77;;
10467;SDS011;5281;48.878;9.394;2023-04-25T03:30:51;3.90;;;2.10;;
10467;SDS011;5281;48.878;9.394;2023-04-25T03:33:19;2.83;;;1.90;;
10467;SDS011;5281;48.878;9.394;2023-04-25T03:35:46;2.00;;;1.63;;
10467;SDS011;5281;48.878;9.394;2023-04-25T03:38:12;4.40;;;2.10;;
10467;SDS011;5281;48.878;9.394;2023-04-25T03:40:41;4.40;;;1.70;;
10467;SDS011;5281;48.878;9.394;2023-04-25T03:43:07;3.20;;;1.90;;
10467;SDS011;5281;48.878;9.394;2023-04-25T03:45:35;2.13;;;1.93;;
10467;SDS011;5281;48.878;9.394;2023-04-25T03:48:02;3.00;;;1.83;;
10467;SDS011;5281;48.878;9.394;2023-04-25T03:50:29;2.77;;;1.80;;
10467;SDS011;5281;48.878;9.394;2023-04-25T03:52:55;3.13;;;1.80;;
10467;SDS011;5281;48.878;9.394;2023-04-25T03:55:22;2.03;;;1.80;;
10467;SDS011;5281;48.878;9.394;2023-04-25T03:57:51;2.57;;;1.90;;
10467;SDS011;5281;48.878;9.394;2023-04-25T04:00:17;2.50;;;2.00;;
10467;SDS011;5281;48.878;9.394;2023-04-25T04:02:44;3.17;;;1.70;;
10467;SDS011;5281;48.878;9.394;2023-04-25T04:05:11;2.70;;;1.80;;
10467;SDS011;5281;48.878;9.394;2023-04-25T04:07:38;3.83;;;1.90;;
10467;SDS011;5281;48.878;9.394;2023-04-25T04:10:07;4.00;;;1.90;;
10467;SDS011;5281;48.878;9.394;2023-04-25T04:12:35;3.13;;;2.00;;
10467;SDS011;5281;48.878;9.394;2023-04-25T04:15:04;5.70;;;2.20;;
10467;SDS011;5281;48.878;9.394;2023-04-25T04:17:32;10.90;;;6.33;;
10467;SDS011;5281;48.878;9.394;2023-04-25T04:19:59;3.90;;;2.30;;
10467;SDS011;5281;48.878;9.394;2023-04-25T04:22:26;2.27;;;1.97;;
10467;SDS011;5281;48.878;9.394;2023-04-25T04:24:53;3.27;;;2.17;;
10467;SDS011;5281;48.878;9.394;2023-04-25T04:27:19;2.50;;;1.90;;
10467;SDS011;5281;48.878;9.394;2023-04-25T04:29:47;2.50;;;2.10;;
10467;SDS011;5281;48.878;9.394;2023-04-25T04:32:16;3.70;;;2.23;;
10467;SDS011;5281;48.878;9.394;2023-04-25T04:34:43;4.87;;;2.63;;
10467;SDS011;5281;48.878;9.394;2023-04-25T04:37:12;3.80;;;2.20;;
10467;SDS011;5281;48.878;9.394;2023-04-25T04:39:39;3.47;;;2.50;;
10467;SDS011;5281;48.878;9.394;2023-04-25T04:42:06;3.53;;;2.23;;
10467;SDS011;5281;48.878;9.394;2023-04-25T04:44:33;4.60;;;2.37;;
10467;SDS011;5281;48.878;9.394;2023-04-25T04:47:00;4.20;;;2.63;;
10467;SDS011;5281;48.878;9.394;2023-04-25T04:49:30;4.27;;;2.60;;
10467;SDS011;5281;48.878;9.394;2023-04-25T04:51:57;3.27;;;2.30;;
10467;SDS011;5281;48.878;9.394;2023-04-25T04:54:24;3.23;;;2.40;;
10467;SDS011;5281;48.878;9.394;2023-04-25T04:56:52;4.30;;;2.73;;
10467;SDS011;5281;48.878;9.394;2023-04-25T04:59:18;4.13;;;2.70;;
10467;SDS011;5281;48.878;9.394;2023-04-25T05:01:46;3.43;;;3.13;;
10467;SDS011;5281;48.878;9.394;2023-04-25T05:04:13;3.97;;;2.90;;
10467;SDS011;5281;48.878;9.394;2023-04-25T05:06:41;5.60;;;2.40;;
10467;SDS011;5281;48.878;9.394;2023-04-25T05:09:09;4.57;;;2.57;;
10467;SDS011;5281;48.878;9.394;2023-04-25T05:11:36;4.87;;;3.03;;
10467;SDS011;5281;48.878;9.394;2023-04-25T05:14:03;6.03;;;2.47;;
10467;SDS011;5281;48.878;9.394;2023-04-25T05:16:30;4.40;;;2.90;;
10467;SDS011;5281;48.878;9.394;2023-04-25T05:18:57;2.87;;;2.50;;
10467;SDS011;5281;48.878;9.394;2023-04-25T05:21:24;4.07;;;2.70;;
10467;SDS011;5281;48.878;9.394;2023-04-25T05:23:53;3.13;;;2.80;;
10467;SDS011;5281;48.878;9.394;2023-04-25T05:26:20;3.63;;;2.60;;
10467;SDS011;5281;48.878;9.394;2023-04-25T05:28:47;4.53;;;2.90;;
10467;SDS011;5281;48.878;9.394;2023-04-25T05:31:16;6.20;;;3.50;;
10467;SDS011;5281;48.878;9.394;2023-04-25T05:33:43;3.43;;;2.97;;
10467;SDS011;5281;48.878;9.394;2023-04-25T05:36:09;4.90;;;2.67;;
10467;SDS011;5281;48.878;9.394;2023-04-25T05:38:36;4.07;;;2.80;;
10467;SDS011;5281;48.878;9.394;2023-04-25T05:41:04;4.43;;;2.70;;
10467;SDS011;5281;48.878;9.394;2023-04-25T05:43:32;4.60;;;2.57;;
10467;SDS011;5281;48.878;9.394;2023-04-25T05:45:59;2.90;;;2.60;;
10467;SDS011;5281;48.878;9.394;2023-04-25T05:48:26;7.37;;;3.97;;
10467;SDS011;5281;48.878;9.394;2023-04-25T05:50:53;4.87;;;3.50;;
10467;SDS011;5281;48.878;9.394;2023-04-25T05:53:20;5.40;;;2.93;;
10467;SDS011;5281;48.878;9.394;2023-04-25T05:55:47;4.37;;;3.07;;
10467;SDS011;5281;48.878;9.394;2023-04-25T05:58:16;3.63;;;2.90;;
10467;SDS011;5281;48.878;9.394;2023-04-25T06:00:43;3.33;;;2.90;;
10467;SDS011;5281;48.878;9.394;2023-04-25T06:03:11;4.30;;;3.10;;
10467;SDS011;5281;48.878;9.394;2023-04-25T06:05:39;4.90;;;2.57;;
10467;SDS011;5281;48.878;9.394;2023-04-25T06:08:07;4.13;;;3.20;;
10467;SDS011;5281;48.878;9.394;2023-04-25T06:10:34;3.57;;;2.83;;
10467;SDS011;5281;48.878;9.394;2023-04-25T06:13:01;3.13;;;2.83;;
10467;SDS011;5281;48.878;9.394;2023-04-25T06:15:29;3.47;;;2.97;;
10467;SDS011;5281;48.878;9.394;2023-04-25T06:17:57;3.63;;;3.27;;
10467;SDS011;5281;48.878;9.394;2023-04-25T06:20:24;4.10;;;3.20;;
10467;SDS011;5281;48.878;9.394;2023-04-25T06:22:51;3.07;;;2.77;;
10467;SDS011;5281;48.878;9.394;2023-04-25T06:25:18;3.47;;;2.80;;
10467;SDS011;5281;48.878;9.394;2023-04-25T06:27:45;4.40;;;3.07;;
10467;SDS011;5281;48.878;9.394;2023-04-25T06:30:12;4.60;;;3.20;;
10467;SDS011;5281;48.878;9.394;2023-04-25T06:32:41;7.97;;;6.20;;
10467;SDS011;5281;48.878;9.394;2023-04-25T06:35:08;5.30;;;4.30;;
10467;SDS011;5281;48.878;9.394;2023-04-25T06:37:35;3.03;;;2.70;;
10467;SDS011;5281;48.878;9.394;2023-04-25T06:40:02;2.88;;;2.65;;
10467;SDS011;5281;48.878;9.394;2023-04-25T06:42:30;2.20;;;2.00;;
10467;SDS011;5281;48.878;9.394;2023-04-25T06:44:56;2.72;;;2.03;;
10467;SDS011;5281;48.878;9.394;2023-04-25T06:47:23;2.53;;;2.25;;
10467;SDS011;5281;48.878;9.394;2023-04-25T06:49:52;2.97;;;2.33;;
10467;SDS011;5281;48.878;9.394;2023-04-25T06:52:18;4.72;;;2.75;;
10467;SDS011;5281;48.878;9.394;2023-04-25T06:54:45;3.53;;;1.88;;
10467;SDS011;5281;48.878;9.394;2023-04-25T06:57:12;3.15;;;1.90;;
10467;SDS011;5281;48.878;9.394;2023-04-25T06:59:39;3.05;;;2.35;;
10467;SDS011;5281;48.878;9.394;2023-04-25T07:02:06;2.83;;;2.25;;
10467;SDS011;5281;48.878;9.394;2023-04-25T07:04:33;2.67;;;2.33;;
10467;SDS011;5281;48.878;9.394;2023-04-25T07:07:01;2.35;;;2.15;;
10467;SDS011;5281;48.878;9.394;2023-04-25T07:09:28;3.45;;;2.22;;
10467;SDS011;5281;48.878;9.394;2023-04-25T07:11:58;2.47;;;2.28;;
10467;SDS011;5281;48.878;9.394;2023-04-25T07:14:26;3.28;;;2.30;;
10467;SDS011;5281;48.878;9.394;2023-04-25T07:16:53;3.47;;;2.92;;
10467;SDS011;5281;48.878;9.394;2023-04-25T07:19:20;3.08;;;2.70;;
10467;SDS011;5281;48.878;9.394;2023-04-25T07:21:48;3.70;;;2.75;;
10467;SDS011;5281;48.878;9.394;2023-04-25T07:24:17;3.28;;;2.53;;
10467;SDS011;5281;48.878;9.394;2023-04-25T07:26:44;3.30;;;3.00;;
10467;SDS011;5281;48.878;9.394;2023-04-25T07:29:11;2.85;;;2.65;;
10467;SDS011;5281;48.878;9.394;2023-04-25T07:31:37;2.90;;;2.70;;
10467;SDS011;5281;48.878;9.394;2023-04-25T07:34:05;3.00;;;2.80;;
10467;SDS011;5281;48.878;9.394;2023-04-25T07:36:31;4.63;;;2.70;;
10467;SDS011;5281;48.878;9.394;2023-04-25T07:38:58;3.00;;;2.70;;
10467;SDS011;5281;48.878;9.394;2023-04-25T07:41:26;2.97;;;2.67;;
10467;SDS011;5281;48.878;9.394;2023-04-25T07:43:53;5.80;;;2.90;;
10467;SDS011;5281;48.878;9.394;2023-04-25T07:46:19;3.00;;;2.70;;
10467;SDS011;5281;48.878;9.394;2023-04-25T07:48:46;3.20;;;2.87;;
10467;SDS011;5281;48.878;9.394;2023-04-25T07:51:13;3.43;;;3.07;;
10467;SDS011;5281;48.878;9.394;2023-04-25T07:53:39;3.43;;;2.97;;
10467;SDS011;5281;48.878;9.394;2023-04-25T07:56:06;3.87;;;2.90;;
10467;SDS011;5281;48.878;9.394;2023-04-25T07:58:35;4.13;;;2.73;;
10467;SDS011;5281;48.878;9.394;2023-04-25T08:01:02;2.87;;;2.57;;
10467;SDS011;5281;48.878;9.394;2023-04-25T08:03:29;4.90;;;2.87;;
10467;SDS011;5281;48.878;9.394;2023-04-25T08:05:55;4.03;;;3.40;;
10467;SDS011;5281;48.878;9.394;2023-04-25T08:08:22;3.20;;;2.90;;
10467;SDS011;5281;48.878;9.394;2023-04-25T08:10:49;3.47;;;2.77;;
10467;SDS011;5281;48.878;9.394;2023-04-25T08:13:16;5.20;;;2.67;;
10467;SDS011;5281;48.878;9.394;2023-04-25T08:15:44;3.50;;;3.20;;
10467;SDS011;5281;48.878;9.394;2023-04-25T08:18:11;3.77;;;2.90;;
10467;SDS011;5281;48.878;9.394;2023-04-25T08:20:37;9.60;;;3.47;;
10467;SDS011;5281;48.878;9.394;2023-04-25T08:23:05;4.47;;;3.50;;
10467;SDS011;5281;48.878;9.394;2023-04-25T08:25:32;4.67;;;3.57;;
10467;SDS011;5281;48.878;9.394;2023-04-25T08:27:59;3.90;;;3.50;;
10467;SDS011;5281;48.878;9.394;2023-04-25T08:30:27;4.30;;;3.90;;
10467;SDS011;5281;48.878;9.394;2023-04-25T08:32:56;4.40;;;3.50;;
10467;SDS011;5281;48.878;9.394;2023-04-25T08:35:22;3.87;;;3.30;;
10467;SDS011;5281;48.878;9.394;2023-04-25T08:37:49;3.60;;;3.10;;
10467;SDS011;5281;48.878;9.394;2023-04-25T08:40:16;3.37;;;3.07;;
10467;SDS011;5281;48.878;9.394;2023-04-25T08:42:43;3.87;;;3.47;;
10467;SDS011;5281;48.878;9.394;2023-04-25T08:45:10;4.47;;;4.00;;
10467;SDS011;5281;48.878;9.394;2023-04-25T08:47:37;4.33;;;3.93;;
10467;SDS011;5281;48.878;9.394;2023-04-25T08:50:07;5.20;;;4.37;;
10467;SDS011;5281;48.878;9.394;2023-04-25T08:52:36;6.07;;;4.40;;
10467;SDS011;5281;48.878;9.394;2023-04-25T08:55:09;8.10;;;4.20;;
10467;SDS011;5281;48.878;9.394;2023-04-25T08:57:39;4.90;;;4.13;;
10467;SDS011;5281;48.878;9.394;2023-04-25T09:00:08;4.35;;;3.95;;
10467;SDS011;5281;48.878;9.394;2023-04-25T09:02:36;5.40;;;3.80;;
10467;SDS011;5281;48.878;9.394;2023-04-25T09:05:05;4.40;;;4.00;;
10467;SDS011;5281;48.878;9.394;2023-04-25T09:07:35;4.40;;;3.27;;
10467;SDS011;5281;48.878;9.394;2023-04-25T09:10:02;4.03;;;3.40;;
10467;SDS011;5281;48.878;9.394;2023-04-25T09:12:30;4.27;;;3.87;;
10467;SDS011;5281;48.878;9.394;2023-04-25T09:15:01;5.60;;;3.70;;
10467;SDS011;5281;48.878;9.394;2023-04-25T09:17:32;3.80;;;3.50;;
10467;SDS011;5281;48.878;9.394;2023-04-25T09:20:05;5.30;;;3.73;;
10467;SDS011;5281;48.878;9.394;2023-04-25T09:22:33;4.27;;;3.43;;
10467;SDS011;5281;48.878;9.394;2023-04-25T09:25:03;6.27;;;4.00;;
10467;SDS011;5281;48.878;9.394;2023-04-25T09:27:33;4.60;;;4.10;;
10467;SDS011;5281;48.878;9.394;2023-04-25T09:30:00;4.97;;;4.00;;
10467;SDS011;5281;48.878;9.394;2023-04-25T09:32:28;4.90;;;4.07;;
10467;SDS011;5281;48.878;9.394;2023-04-25T09:34:55;4.20;;;3.80;;
10467;SDS011;5281;48.878;9.394;2023-04-25T09:37:23;4.87;;;4.47;;
10467;SDS011;5281;48.878;9.394;2023-04-25T09:39:52;5.10;;;4.57;;
10467;SDS011;5281;48.878;9.394;2023-04-25T09:42:21;6.33;;;4.20;;
10467;SDS011;5281;48.878;9.394;2023-04-25T09:44:50;6.47;;;3.67;;
10467;SDS011;5281;48.878;9.394;2023-04-25T09:47:18;4.83;;;3.73;;
10467;SDS011;5281;48.878;9.394;2023-04-25T09:49:47;7.63;;;4.00;;
10467;SDS011;5281;48.878;9.394;2023-04-25T09:52:15;4.87;;;4.40;;
10467;SDS011;5281;48.878;9.394;2023-04-25T09:54:42;4.73;;;3.60;;
10467;SDS011;5281;48.878;9.394;2023-04-25T09:57:12;4.93;;;4.43;;
10467;SDS011;5281;48.878;9.394;2023-04-25T09:59:43;5.85;;;4.07;;
10467;SDS011;5281;48.878;9.394;2023-04-25T10:02:11;5.57;;;4.70;;
10467;SDS011;5281;48.878;9.394;2023-04-25T10:04:38;7.07;;;5.00;;
10467;SDS011;5281;48.878;9.394;2023-04-25T10:07:07;5.67;;;4.30;;
10467;SDS011;5281;48.878;9.394;2023-04-25T10:09:36;5.37;;;4.33;;
10467;SDS011;5281;48.878;9.394;2023-04-25T10:12:06;5.77;;;4.43;;
10467;SDS011;5281;48.878;9.394;2023-04-25T10:14:34;4.87;;;3.40;;
10467;SDS011;5281;48.878;9.394;2023-04-25T10:17:01;4.63;;;3.63;;
10467;SDS011;5281;48.878;9.394;2023-04-25T10:19:28;4.80;;;3.20;;
10467;SDS011;5281;48.878;9.394;2023-04-25T10:21:57;3.53;;;3.17;;
10467;SDS011;5281;48.878;9.394;2023-04-25T10:24:29;4.07;;;2.67;;
10467;SDS011;5281;48.878;9.394;2023-04-25T10:26:56;4.53;;;2.50;;
10467;SDS011;5281;48.878;9.394;2023-04-25T10:29:23;3.90;;;2.40;;
10467;SDS011;5281;48.878;9.394;2023-04-25T10:31:52;3.63;;;2.50;;
10467;SDS011;5281;48.878;9.394;2023-04-25T10:34:19;7.53;;;4.40;;
10467;SDS011;5281;48.878;9.394;2023-04-25T10:36:51;5.00;;;3.00;;
10467;SDS011;5281;48.878;9.394;2023-04-25T10:39:22;4.47;;;3.20;;
10467;SDS011;5281;48.878;9.394;2023-04-25T10:41:52;3.07;;;2.77;;
10467;SDS011;5281;48.878;9.394;2023-04-25T10:44:21;4.33;;;2.73;;
10467;SDS011;5281;48.878;9.394;2023-04-25T10:46:47;4.17;;;3.20;;
10467;SDS011;5281;48.878;9.394;2023-04-25T10:49:31;7.70;;;5.70;;
10467;SDS011;5281;48.878;9.394;2023-04-25T10:52:12;5.43;;;4.07;;
10467;SDS011;5281;48.878;9.394;2023-04-25T10:54:45;6.03;;;3.50;;
10467;SDS011;5281;48.878;9.394;2023-04-25T10:57:32;6.20;;;5.60;;
10467;SDS011;5281;48.878;9.394;2023-04-25T11:00:06;5.17;;;4.00;;
10467;SDS011;5281;48.878;9.394;2023-04-25T11:02:42;5.60;;;4.07;;
10467;SDS011;5281;48.878;9.394;2023-04-25T11:05:16;8.73;;;5.47;;
10467;SDS011;5281;48.878;9.394;2023-04-25T11:07:49;7.27;;;4.90;;
10467;SDS011;5281;48.878;9.394;2023-04-25T11:10:17;8.73;;;5.50;;
10467;SDS011;5281;48.878;9.394;2023-04-25T11:12:44;6.37;;;5.33;;
10467;SDS011;5281;48.878;9.394;2023-04-25T11:15:12;7.27;;;5.27;;
10467;SDS011;5281;48.878;9.394;2023-04-25T11:17:38;6.43;;;5.10;;
10467;SDS011;5281;48.878;9.394;2023-04-25T11:20:06;6.03;;;5.20;;
10467;SDS011;5281;48.878;9.394;2023-04-25T11:22:38;5.53;;;4.80;;
10467;SDS011;5281;48.878;9.394;2023-04-25T11:25:07;7.00;;;5.37;;
10467;SDS011;5281;48.878;9.394;2023-04-25T11:27:37;5.50;;;4.47;;
10467;SDS011;5281;48.878;9.394;2023-04-25T11:30:11;5.70;;;5.00;;
10467;SDS011;5281;48.878;9.394;2023-04-25T11:32:40;5.80;;;4.60;;
10467;SDS011;5281;48.878;9.394;2023-04-25T11:35:07;5.40;;;4.20;;
10467;SDS011;5281;48.878;9.394;2023-04-25T11:37:34;5.33;;;3.50;;
10467;SDS011;5281;48.878;9.394;2023-04-25T11:40:03;5.53;;;3.90;;
10467;SDS011;5281;48.878;9.394;2023-04-25T11:42:33;4.03;;;3.63;;
10467;SDS011;5281;48.878;9.394;2023-04-25T11:44:59;4.80;;;3.10;;
10467;SDS011;5281;48.878;9.394;2023-04-25T11:47:29;3.63;;;3.10;;
10467;SDS011;5281;48.878;9.394;2023-04-25T11:49:57;3.40;;;3.10;;
10467;SDS011;5281;48.878;9.394;2023-04-25T11:52:24;2.97;;;2.67;;
10467;SDS011;5281;48.878;9.394;2023-04-25T11:54:51;3.43;;;3.00;;
10467;SDS011;5281;48.878;9.394;2023-04-25T11:57:19;5.13;;;3.30;;
10467;SDS011;5281;48.878;9.394;2023-04-25T11:59:46;4.67;;;3.10;;
10467;SDS011;5281;48.878;9.394;2023-04-25T12:02:23;7.27;;;3.90;;
10467;SDS011;5281;48.878;9.394;2023-04-25T12:04:51;4.53;;;3.40;;
10467;SDS011;5281;48.878;9.394;2023-04-25T12:07:18;2.17;;;1.70;;
10467;SDS011;5281;48.878;9.394;2023-04-25T12:09:51;3.03;;;2.17;;
10467;SDS011;5281;48.878;9.394;2023-04-25T12:12:19;2.85;;;1.90;;
10467;SDS011;5281;48.878;9.394;2023-04-25T12:14:46;4.27;;;2.20;;
10467;SDS011;5281;48.878;9.394;2023-04-25T12:17:13;4.00;;;2.23;;
10467;SDS011;5281;48.878;9.394;2023-04-25T12:19:40;3.63;;;2.00;;
10467;SDS011;5281;48.878;9.394;2023-04-25T12:22:19;3.30;;;2.22;;
10467;SDS011;5281;48.878;9.394;2023-04-25T12:24:47;2.22;;;2.00;;
10467;SDS011;5281;48.878;9.394;2023-04-25T12:27:14;3.10;;;2.60;;
10467;SDS011;5281;48.878;9.394;2023-04-25T12:29:51;2.83;;;2.10;;
10467;SDS011;5281;48.878;9.394;2023-04-25T12:32:19;2.08;;;1.88;;
10467;SDS011;5281;48.878;9.394;2023-04-25T12:34:45;2.33;;;2.03;;
10467;SDS011;5281;48.878;9.394;2023-04-25T12:37:12;3.17;;;2.70;;
10467;SDS011;5281;48.878;9.394;2023-04-25T12:39:39;3.40;;;1.97;;
10467;SDS011;5281;48.878;9.394;2023-04-25T12:42:06;3.57;;;2.47;;
10467;SDS011;5281;48.878;9.394;2023-04-25T12:44:36;2.60;;;2.40;;
10467;SDS011;5281;48.878;9.394;2023-04-25T12:47:04;2.92;;;2.60;;
10467;SDS011;5281;48.878;9.394;2023-04-25T12:49:31;3.60;;;2.55;;
10467;SDS011;5281;48.878;9.394;2023-04-25T12:51:58;5.67;;;2.60;;
10467;SDS011;5281;48.878;9.394;2023-04-25T12:54:25;3.00;;;2.78;;
10467;SDS011;5281;48.878;9.394;2023-04-25T12:56:52;4.72;;;3.05;;
10467;SDS011;5281;48.878;9.394;2023-04-25T12:59:19;5.15;;;3.38;;
10467;SDS011;5281;48.878;9.394;2023-04-25T13:01:46;4.35;;;3.47;;
10467;SDS011;5281;48.878;9.394;2023-04-25T13:04:14;4.87;;;3.40;;
10467;SDS011;5281;48.878;9.394;2023-04-25T13:06:41;3.73;;;3.27;;
10467;SDS011;5281;48.878;9.394;2023-04-25T13:09:08;5.50;;;3.40;;
10467;SDS011;5281;48.878;9.394;2023-04-25T13:11:37;3.60;;;3.30;;
10467;SDS011;5281;48.878;9.394;2023-04-25T13:14:04;3.58;;;3.28;;
10467;SDS011;5281;48.878;9.394;2023-04-25T13:16:31;4.78;;;3.40;;
10467;SDS011;5281;48.878;9.394;2023-04-25T13:18:58;4.43;;;3.40;;
10467;SDS011;5281;48.878;9.394;2023-04-25T13:21:26;5.57;;;3.63;;
10467;SDS011;5281;48.878;9.394;2023-04-25T13:23:52;4.50;;;3.40;;
10467;SDS011;5281;48.878;9.394;2023-04-25T13:26:19;3.92;;;3.53;;
10467;SDS011;5281;48.878;9.394;2023-04-25T13:28:46;4.55;;;3.70;;
10467;SDS011;5281;48.878;9.394;2023-04-25T13:31:13;5.68;;;3.50;;
10467;SDS011;5281;48.878;9.394;2023-04-25T13:33:39;4.25;;;3.28;;
10467;SDS011;5281;48.878;9.394;2023-04-25T13:36:06;4.07;;;3.65;;
10467;SDS011;5281;48.878;9.394;2023-04-25T13:38:35;5.05;;;3.97;;
10467;SDS011;5281;48.878;9.394;2023-04-25T13:41:03;5.57;;;3.92;;
10467;SDS011;5281;48.878;9.394;2023-04-25T13:43:32;6.00;;;4.47;;
10467;SDS011;5281;48.878;9.394;2023-04-25T13:45:59;6.85;;;4.10;;
10467;SDS011;5281;48.878;9.394;2023-04-25T13:48:26;5.75;;;4.50;;
10467;SDS011;5281;48.878;9.394;2023-04-25T13:50:52;5.60;;;4.03;;
10467;SDS011;5281;48.878;9.394;2023-04-25T13:53:19;5.15;;;4.38;;
10467;SDS011;5281;48.878;9.394;2023-04-25T13:55:47;5.60;;;4.33;;
10467;SDS011;5281;48.878;9.394;2023-04-25T13:58:14;7.25;;;4.80;;
10467;SDS011;5281;48.878;9.394;2023-04-25T14:00:41;7.43;;;4.80;;
10467;SDS011;5281;48.878;9.394;2023-04-25T14:03:08;7.30;;;4.85;;
10467;SDS011;5281;48.878;9.394;2023-04-25T14:05:35;7.03;;;4.82;;
10467;SDS011;5281;48.878;9.394;2023-04-25T14:08:04;5.80;;;4.97;;
10467;SDS011;5281;48.878;9.394;2023-04-25T14:10:32;8.45;;;4.82;;
10467;SDS011;5281;48.878;9.394;2023-04-25T14:13:01;7.72;;;5.30;;
10467;SDS011;5281;48.878;9.394;2023-04-25T14:15:28;7.57;;;5.00;;
10467;SDS011;5281;48.878;9.394;2023-04-25T14:17:55;6.03;;;5.10;;
10467;SDS011;5281;48.878;9.394;2023-04-25T14:20:22;8.32;;;5.35;;
10467;SDS011;5281;48.878;9.394;2023-04-25T14:22:49;7.90;;;5.63;;
10467;SDS011;5281;48.878;9.394;2023-04-25T14:25:32;6.23;;;4.93;;
10467;SDS011;5281;48.878;9.394;2023-04-25T14:28:02;6.35;;;5.35;;
10467;SDS011;5281;48.878;9.394;2023-04-25T14:30:29;7.72;;;5.03;;
10467;SDS011;5281;48.878;9.394;2023-04-25T14:32:55;7.05;;;5.13;;
10467;SDS011;5281;48.878;9.394;2023-04-25T14:35:22;6.50;;;5.00;;
10467;SDS011;5281;48.878;9.394;2023-04-25T14:37:50;7.55;;;5.07;;
10467;SDS011;5281;48.878;9.394;2023-04-25T14:40:17;7.13;;;4.95;;
10467;SDS011;5281;48.878;9.394;2023-04-25T14:42:47;9.55;;;5.22;;
10467;SDS011;5281;48.878;9.394;2023-04-25T14:45:16;7.05;;;4.72;;
10467;SDS011;5281;48.878;9.394;2023-04-25T14:47:43;5.95;;;5.10;;
10467;SDS011;5281;48.878;9.394;2023-04-25T14:50:10;5.60;;;4.95;;
10467;SDS011;5281;48.878;9.394;2023-04-25T14:52:37;6.97;;;4.97;;
10467;SDS011;5281;48.878;9.394;2023-04-25T14:55:04;5.55;;;5.05;;
10467;SDS011;5281;48.878;9.394;2023-04-25T14:57:32;7.65;;;5.13;;
10467;SDS011;5281;48.878;9.394;2023-04-25T14:59:59;6.93;;;4.60;;
10467;SDS011;5281;48.878;9.394;2023-04-25T15:02:28;5.45;;;4.40;;
10467;SDS011;5281;48.878;9.394;2023-04-25T15:04:56;6.80;;;5.07;;